createdAt,value
2023-04-07T00:00:28.312Z,92678.34
2023-04-07T00:02:54.852Z,92672.81
2023-04-07T00:05:21.480Z,92669.56
2023-04-07T00:07:55.949Z,92667.97
2023-04-07T00:10:24.642Z,92664.34
2023-04-07T00:12:51.293Z,92672.63
2023-04-07T00:15:17.900Z,92673.09
2023-04-07T00:17:44.446Z,92662.09
2023-04-07T00:20:11.448Z,92654.75
2023-04-07T00:22:37.839Z,92651.34
2023-04-07T00:25:04.621Z,92644.78
2023-04-07T00:27:31.081Z,92644.22
2023-04-07T00:29:57.611Z,92648.50
2023-04-07T00:32:24.135Z,92641.72
2023-04-07T00:34:50.715Z,92641.03
2023-04-07T00:37:17.468Z,92638.56
2023-04-07T00:39:43.946Z,92638.38
2023-04-07T00:42:10.947Z,92626.81
2023-04-07T00:44:37.529Z,92630.34
2023-04-07T00:47:04.049Z,92625.81
2023-04-07T00:49:31.814Z,92618.25
2023-04-07T00:51:58.753Z,92616.34
2023-04-07T00:54:25.404Z,92617.38
2023-04-07T00:56:53.549Z,92614.28
2023-04-07T00:59:21.848Z,92617.13
2023-04-07T01:01:58.805Z,92611.91
2023-04-07T01:04:40.801Z,92617.78
2023-04-07T01:07:35.999Z,92605.34
2023-04-07T01:10:11.903Z,92606.91
2023-04-07T01:12:53.872Z,92599.47
2023-04-07T01:15:27.497Z,92598.00
2023-04-07T01:18:01.816Z,92599.56
2023-04-07T01:20:31.204Z,92595.84
2023-04-07T01:23:04.920Z,92587.06
2023-04-07T01:25:53.285Z,92584.88
2023-04-07T01:28:25.983Z,92585.13
2023-04-07T01:30:56.124Z,92581.41
2023-04-07T01:33:24.597Z,92574.94
2023-04-07T01:35:52.272Z,92581.84
2023-04-07T01:38:20.584Z,92577.50
2023-04-07T01:40:47.859Z,92577.50
2023-04-07T01:43:15.881Z,92572.31
2023-04-07T01:45:43.559Z,92573.44
2023-04-07T01:48:11.321Z,92575.03
2023-04-07T01:50:39.310Z,92570.13
2023-04-07T01:53:06.117Z,92576.69
2023-04-07T01:55:32.778Z,92570.94
2023-04-07T01:58:07.099Z,92568.31
2023-04-07T02:00:35.499Z,92573.53
2023-04-07T02:03:21.219Z,92563.13
2023-04-07T02:05:49.914Z,92563.19
2023-04-07T02:08:19.953Z,92559.91
2023-04-07T02:10:49.236Z,92559.09
2023-04-07T02:13:18.806Z,92562.97
2023-04-07T02:15:48.335Z,92559.56
2023-04-07T02:18:19.930Z,92561.16
2023-04-07T02:20:48.031Z,92557.53
2023-04-07T02:23:14.542Z,92557.31
2023-04-07T02:25:41.576Z,92540.31
2023-04-07T02:28:08.129Z,92539.06
2023-04-07T02:30:35.843Z,92537.81
2023-04-07T02:33:02.677Z,92530.56
2023-04-07T02:35:29.156Z,92529.75
2023-04-07T02:37:55.634Z,92535.91
2023-04-07T02:40:22.194Z,92532.50
2023-04-07T02:42:48.670Z,92528.31
2023-04-07T02:45:16.012Z,92521.06
2023-04-07T02:47:42.623Z,92512.34
2023-04-07T02:50:09.653Z,92512.41
2023-04-07T02:52:36.151Z,92512.09
2023-04-07T02:55:08.620Z,92506.47
2023-04-07T02:57:35.683Z,92504.19
2023-04-07T03:00:05.632Z,92496.72
2023-04-07T03:02:49.716Z,92501.13
2023-04-07T03:05:17.634Z,92504.03
2023-04-07T03:07:44.242Z,92497.72
2023-04-07T03:10:11.280Z,92507.81
2023-04-07T03:12:37.779Z,92494.72
2023-04-07T03:15:04.394Z,92494.00
2023-04-07T03:17:31.676Z,92490.16
2023-04-07T03:19:58.188Z,92496.16
2023-04-07T03:22:26.463Z,92492.28
2023-04-07T03:24:53.796Z,92492.34
2023-04-07T03:27:22.972Z,92496.31
2023-04-07T03:29:51.197Z,92486.44
2023-04-07T03:32:17.843Z,92491.44
2023-04-07T03:34:44.536Z,92484.88
2023-04-07T03:37:13.157Z,92488.41
2023-04-07T03:39:41.089Z,92493.78
2023-04-07T03:42:22.367Z,92481.94
2023-04-07T03:44:51.284Z,92483.16
2023-04-07T03:47:17.981Z,92482.88
2023-04-07T03:49:50.448Z,92476.53
2023-04-07T03:52:17.399Z,92471.72
2023-04-07T03:54:47.813Z,92480.34
2023-04-07T03:57:14.351Z,92466.78
2023-04-07T03:59:45.198Z,92462.59
2023-04-07T04:02:12.025Z,92465.13
2023-04-07T04:04:39.506Z,92470.31
2023-04-07T04:07:08.188Z,92469.22
2023-04-07T04:09:42.369Z,92473.19
2023-04-07T04:12:08.804Z,92464.53
2023-04-07T04:14:41.814Z,92467.81
2023-04-07T04:17:09.948Z,92451.19
2023-04-07T04:19:41.819Z,92441.69
2023-04-07T04:22:19.176Z,92443.53
2023-04-07T04:24:52.112Z,92449.22
2023-04-07T04:27:19.068Z,92450.56
2023-04-07T04:29:51.732Z,92459.84
2023-04-07T04:32:25.150Z,92458.06
2023-04-07T04:34:52.083Z,92465.75
2023-04-07T04:37:18.613Z,92464.19
2023-04-07T04:39:46.698Z,92466.22
2023-04-07T04:42:17.445Z,92477.84
2023-04-07T04:44:44.562Z,92477.84
2023-04-07T04:47:12.559Z,92465.41
2023-04-07T04:49:40.261Z,92467.13
2023-04-07T04:52:07.040Z,92472.75
2023-04-07T04:54:39.697Z,92468.03
2023-04-07T04:57:06.174Z,92460.34
2023-04-07T04:59:34.267Z,92458.31
2023-04-07T05:02:03.293Z,92464.41
2023-04-07T05:04:30.111Z,92458.44
2023-04-07T05:07:08.361Z,92459.34
2023-04-07T05:09:35.298Z,92458.41
2023-04-07T05:12:02.594Z,92461.47
2023-04-07T05:14:32.961Z,92460.00
2023-04-07T05:17:04.824Z,92460.53
2023-04-07T05:19:32.549Z,92458.75
2023-04-07T05:22:04.813Z,92455.59
2023-04-07T05:24:38.967Z,92460.31
2023-04-07T05:27:05.544Z,92455.13
2023-04-07T05:29:31.999Z,92459.41
2023-04-07T05:31:58.534Z,92451.84
2023-04-07T05:34:25.897Z,92466.72
2023-04-07T05:36:54.821Z,92449.69
2023-04-07T05:39:21.781Z,92457.34
2023-04-07T05:41:52.175Z,92458.63
2023-04-07T05:44:20.574Z,92461.06
2023-04-07T05:46:47.027Z,92460.72
2023-04-07T05:51:48.815Z,92459.34
2023-04-07T05:54:15.937Z,92454.34
2023-04-07T05:56:42.684Z,92455.88
2023-04-07T05:59:09.940Z,92458.66
2023-04-07T06:01:36.472Z,92455.47
2023-04-07T06:04:04.223Z,92467.06
2023-04-07T06:06:31.248Z,92465.34
2023-04-07T06:08:57.772Z,92461.72
2023-04-07T06:11:26.180Z,92468.34
2023-04-07T06:13:52.972Z,92464.31
2023-04-07T06:16:19.737Z,92466.47
2023-04-07T06:18:46.600Z,92468.97
2023-04-07T06:21:13.029Z,92466.00
2023-04-07T06:23:39.590Z,92467.19
2023-04-07T06:26:09.190Z,92462.53
2023-04-07T06:28:35.668Z,92463.81
2023-04-07T06:31:02.164Z,92467.19
2023-04-07T06:33:29.488Z,92477.06
2023-04-07T06:35:56.705Z,92468.47
2023-04-07T06:38:23.278Z,92475.47
2023-04-07T06:40:49.812Z,92467.44
2023-04-07T06:43:16.254Z,92469.88
2023-04-07T06:45:50.376Z,92473.13
2023-04-07T06:48:16.862Z,92470.84
2023-04-07T06:50:46.958Z,92467.28
2023-04-07T06:53:13.386Z,92462.94
2023-04-07T06:55:39.808Z,92467.19
2023-04-07T06:58:06.330Z,92469.38
2023-04-07T07:00:32.803Z,92462.50
2023-04-07T07:02:59.449Z,92474.19
2023-04-07T07:05:26.152Z,92462.16
2023-04-07T07:07:52.687Z,92468.03
2023-04-07T07:10:20.656Z,92461.56
2023-04-07T07:12:47.108Z,92463.59
2023-04-07T07:15:13.554Z,92462.00
2023-04-07T07:17:40.020Z,92471.06
2023-04-07T07:20:07.087Z,92471.44
2023-04-07T07:22:33.581Z,92465.00
2023-04-07T07:25:00.031Z,92469.78
2023-04-07T07:27:27.047Z,92461.09
2023-04-07T07:29:53.472Z,92457.28
2023-04-07T07:32:20.043Z,92467.03
2023-04-07T07:34:46.583Z,92463.50
2023-04-07T07:37:13.096Z,92459.41
2023-04-07T07:39:39.674Z,92464.19
2023-04-07T07:42:06.115Z,92462.63
2023-04-07T07:44:32.706Z,92458.97
2023-04-07T07:46:59.198Z,92461.28
2023-04-07T07:49:25.668Z,92462.63
2023-04-07T07:51:52.052Z,92465.44
2023-04-07T07:54:18.544Z,92469.25
2023-04-07T07:56:45.269Z,92467.88
2023-04-07T07:59:18.268Z,92474.16
2023-04-07T08:01:44.782Z,92466.34
2023-04-07T08:04:11.373Z,92471.16
2023-04-07T08:06:38.088Z,92473.47
2023-04-07T08:09:06.079Z,92473.22
2023-04-07T08:11:32.542Z,92477.97
2023-04-07T08:13:58.983Z,92471.78
2023-04-07T08:16:26.871Z,92480.13
2023-04-07T08:18:53.457Z,92486.44
2023-04-07T08:21:20.954Z,92485.41
2023-04-07T08:23:48.019Z,92488.63
2023-04-07T08:26:14.802Z,92480.56
2023-04-07T08:28:41.265Z,92488.72
2023-04-07T08:31:07.922Z,92483.50
2023-04-07T08:33:34.423Z,92495.00
2023-04-07T08:36:01.199Z,92490.22
2023-04-07T08:38:27.986Z,92494.97
2023-04-07T08:41:01.330Z,92487.13
2023-04-07T08:43:29.170Z,92487.97
2023-04-07T08:45:57.689Z,92492.53
2023-04-07T08:48:28.587Z,92496.44
2023-04-07T08:50:55.973Z,92495.09
2023-04-07T08:53:34.457Z,92497.19
2023-04-07T08:56:02.056Z,92502.41
2023-04-07T08:58:30.183Z,92504.00
2023-04-07T09:00:56.619Z,92504.28
2023-04-07T09:03:24.487Z,92505.34
2023-04-07T09:05:51.322Z,92501.22
2023-04-07T09:08:17.761Z,92501.22
2023-04-07T09:10:44.288Z,92500.47
2023-04-07T09:13:10.793Z,92500.47
2023-04-07T09:15:38.795Z,92506.00
2023-04-07T09:18:06.379Z,92497.63
2023-04-07T09:21:01.909Z,92501.56
2023-04-07T09:23:33.859Z,92504.72
2023-04-07T09:26:24.689Z,92499.44
2023-04-07T09:28:57.426Z,92499.44
2023-04-07T09:31:43.160Z,92503.16
2023-04-07T09:34:30.425Z,92505.78
2023-04-07T09:36:57.786Z,92500.00
2023-04-07T09:39:24.823Z,92508.94
2023-04-07T09:41:52.046Z,92507.34
2023-04-07T09:44:19.321Z,92503.66
2023-04-07T09:46:53.808Z,92503.94
2023-04-07T09:49:21.306Z,92501.59
2023-04-07T09:51:53.592Z,92511.31
2023-04-07T09:54:37.740Z,92510.00
2023-04-07T09:57:07.140Z,92512.09
2023-04-07T09:59:35.456Z,92509.47
2023-04-07T10:02:02.889Z,92505.53
2023-04-07T10:04:29.521Z,92512.09
2023-04-07T10:06:58.171Z,92505.00
2023-04-07T10:09:26.791Z,92507.88
2023-04-07T10:11:54.444Z,92503.41
2023-04-07T10:14:23.305Z,92508.41
2023-04-07T10:16:51.856Z,92504.47
2023-04-07T10:19:19.149Z,92504.16
2023-04-07T10:21:49.564Z,92507.06
2023-04-07T10:24:45.018Z,92508.66
2023-04-07T10:27:16.432Z,92507.88
2023-04-07T10:29:46.527Z,92517.59
2023-04-07T10:32:13.656Z,92507.09
2023-04-07T10:35:01.231Z,92515.75
2023-04-07T10:37:28.608Z,92515.25
2023-04-07T10:40:34.163Z,92518.38
2023-04-07T10:43:01.230Z,92506.56
2023-04-07T10:45:52.164Z,92509.97
2023-04-07T10:48:19.666Z,92514.16
2023-04-07T10:51:07.790Z,92517.31
2023-04-07T10:53:38.363Z,92521.50
2023-04-07T10:56:05.753Z,92515.19
2023-04-07T10:58:33.324Z,92519.69
2023-04-07T11:00:59.709Z,92523.06
2023-04-07T11:03:27.501Z,92520.38
2023-04-07T11:06:08.168Z,92520.31
2023-04-07T11:08:42.227Z,92525.59
2023-04-07T11:11:11.109Z,92518.53
2023-04-07T11:13:48.625Z,92527.28
2023-04-07T11:16:17.477Z,92521.00
2023-04-07T11:18:44.922Z,92511.53
2023-04-07T11:21:11.420Z,92523.34
2023-04-07T11:23:42.433Z,92522.06
2023-04-07T11:26:11.469Z,92518.31
2023-04-07T11:28:54.096Z,92523.41
2023-04-07T11:31:28.614Z,92515.84
2023-04-07T11:34:05.539Z,92514.59
2023-04-07T11:36:40.328Z,92525.72
2023-04-07T11:39:19.956Z,92521.34
2023-04-07T11:41:48.121Z,92515.19
2023-04-07T11:44:14.797Z,92525.16
2023-04-07T11:47:03.470Z,92517.25
2023-04-07T11:49:31.537Z,92521.56
2023-04-07T11:52:04.168Z,92518.41
2023-04-07T11:54:46.804Z,92517.09
2023-04-07T11:57:13.923Z,92522.50
2023-04-07T11:59:41.418Z,92516.53
2023-04-07T12:02:08.440Z,92521.69
2023-04-07T12:04:37.691Z,92530.44
2023-04-07T12:07:11.592Z,92529.53
2023-04-07T12:09:38.314Z,92524.94
2023-04-07T12:12:07.575Z,92527.91
2023-04-07T12:14:34.758Z,92526.53
2023-04-07T12:17:03.385Z,92530.09
2023-04-07T12:19:35.889Z,92529.41
2023-04-07T12:22:02.803Z,92529.09
2023-04-07T12:24:29.344Z,92525.38
2023-04-07T12:26:56.126Z,92538.78
2023-04-07T12:29:22.948Z,92531.75
2023-04-07T12:31:51.110Z,92527.13
2023-04-07T12:34:18.238Z,92539.00
2023-04-07T12:36:44.774Z,92534.59
2023-04-07T12:39:11.514Z,92534.56
2023-04-07T12:41:38.714Z,92540.34
2023-04-07T12:44:05.852Z,92540.38
2023-04-07T12:46:32.356Z,92539.63
2023-04-07T12:48:58.974Z,92539.88
2023-04-07T12:51:26.055Z,92548.84
2023-04-07T12:53:54.081Z,92547.00
2023-04-07T12:56:22.330Z,92547.75
2023-04-07T12:58:48.797Z,92541.75
2023-04-07T13:01:15.324Z,92542.25
2023-04-07T13:03:41.954Z,92546.94
2023-04-07T13:06:08.551Z,92551.16
2023-04-07T13:08:34.958Z,92546.66
2023-04-07T13:11:01.447Z,92550.56
2023-04-07T13:13:28.280Z,92544.53
2023-04-07T13:15:54.752Z,92554.28
2023-04-07T13:18:21.772Z,92553.19
2023-04-07T13:21:02.958Z,92546.63
2023-04-07T13:23:42.912Z,92550.38
2023-04-07T13:26:10.379Z,92545.41
2023-04-07T13:28:37.353Z,92550.91
2023-04-07T13:31:03.918Z,92546.94
2023-04-07T13:33:30.369Z,92551.41
2023-04-07T13:35:56.901Z,92547.84
2023-04-07T13:38:23.326Z,92546.69
2023-04-07T13:40:49.841Z,92555.28
2023-04-07T13:43:18.498Z,92548.84
2023-04-07T13:45:44.946Z,92549.66
2023-04-07T13:48:11.481Z,92544.25
2023-04-07T13:50:38.466Z,92557.66
2023-04-07T13:53:04.930Z,92541.69
2023-04-07T13:55:31.321Z,92545.22
2023-04-07T13:57:57.747Z,92554.13
2023-04-07T14:00:24.282Z,92550.19
2023-04-07T14:02:50.817Z,92545.03
2023-04-07T14:05:17.382Z,92545.16
2023-04-07T14:07:43.797Z,92540.22
2023-04-07T14:10:10.848Z,92541.75
2023-04-07T14:12:37.381Z,92543.38
2023-04-07T14:15:04.425Z,92547.28
2023-04-07T14:17:30.934Z,92549.25
2023-04-07T14:19:57.412Z,92551.91
2023-04-07T14:22:23.861Z,92547.22
2023-04-07T14:24:50.271Z,92548.28
2023-04-07T14:27:20.784Z,92547.22
2023-04-07T14:29:48.177Z,92544.78
2023-04-07T14:32:15.681Z,92546.78
2023-04-07T14:34:42.202Z,92554.50
2023-04-07T14:37:08.693Z,92555.75
2023-04-07T14:39:35.525Z,92555.66
2023-04-07T14:42:02.007Z,92557.91
2023-04-07T14:44:30.892Z,92568.13
2023-04-07T14:46:57.420Z,92565.09
2023-04-07T14:49:25.066Z,92567.72
2023-04-07T14:51:51.877Z,92575.53
2023-04-07T14:54:18.320Z,92578.56
2023-04-07T14:56:45.096Z,92583.47
2023-04-07T14:59:11.516Z,92587.28
2023-04-07T15:01:38.751Z,92588.84
2023-04-07T15:04:05.716Z,92600.38
2023-04-07T15:06:32.262Z,92592.22
2023-04-07T15:08:58.750Z,92589.59
2023-04-07T15:11:26.178Z,92582.56
2023-04-07T15:13:52.622Z,92588.34
2023-04-07T15:16:19.112Z,92588.97
2023-04-07T15:18:47.198Z,92594.75
2023-04-07T15:21:15.501Z,92596.91
2023-04-07T15:23:42.263Z,92592.50
2023-04-07T15:26:09.945Z,92601.19
2023-04-07T15:28:36.420Z,92604.13
2023-04-07T15:31:03.387Z,92591.09
2023-04-07T15:33:29.960Z,92591.88
2023-04-07T15:35:56.588Z,92597.59
2023-04-07T15:38:23.061Z,92608.69
2023-04-07T15:40:49.533Z,92618.13
2023-04-07T15:43:16.225Z,92615.97
2023-04-07T15:45:43.874Z,92625.28
2023-04-07T15:48:11.373Z,92642.09
2023-04-07T15:50:38.088Z,92651.34
2023-04-07T15:53:04.826Z,92654.16
2023-04-07T15:55:35.340Z,92654.59
2023-04-07T15:58:03.122Z,92661.00
2023-04-07T16:00:32.183Z,92663.09
2023-04-07T16:02:58.979Z,92661.91
2023-04-07T16:05:25.541Z,92665.53
2023-04-07T16:07:51.943Z,92668.50
2023-04-07T16:10:19.883Z,92665.00
2023-04-07T16:12:46.967Z,92676.34
2023-04-07T16:15:16.765Z,92666.66
2023-04-07T16:17:48.473Z,92666.88
2023-04-07T16:20:15.761Z,92677.03
2023-04-07T16:22:47.941Z,92669.63
2023-04-07T16:25:16.045Z,92671.69
2023-04-07T16:27:44.504Z,92679.63
2023-04-07T16:30:13.634Z,92685.44
2023-04-07T16:32:40.957Z,92689.09
2023-04-07T16:35:07.774Z,92683.81
2023-04-07T16:37:34.257Z,92692.59
2023-04-07T16:40:00.789Z,92688.78
2023-04-07T16:42:31.108Z,92691.84
2023-04-07T16:44:57.699Z,92700.78
2023-04-07T16:47:26.071Z,92694.47
2023-04-07T16:49:52.698Z,92701.13
2023-04-07T16:52:20.533Z,92701.31
2023-04-07T16:54:47.226Z,92698.00
2023-04-07T16:57:13.717Z,92704.50
2023-04-07T16:59:40.734Z,92705.84
2023-04-07T17:02:16.078Z,92705.22
2023-04-07T17:04:43.847Z,92714.59
2023-04-07T17:07:10.742Z,92706.78
2023-04-07T17:09:37.364Z,92715.13
2023-04-07T17:12:05.789Z,92707.72
2023-04-07T17:14:32.637Z,92709.78
2023-04-07T17:16:59.139Z,92713.06
2023-04-07T17:19:25.590Z,92709.91
2023-04-07T17:21:52.076Z,92708.16
2023-04-07T17:24:18.650Z,92710.44
2023-04-07T17:26:49.355Z,92711.25
2023-04-07T17:29:16.741Z,92712.69
2023-04-07T17:31:43.937Z,92712.44
2023-04-07T17:34:11.238Z,92712.91
2023-04-07T17:36:38.020Z,92724.59
2023-04-07T17:39:05.082Z,92722.78
2023-04-07T17:41:34.372Z,92726.88
2023-04-07T17:44:01.441Z,92733.00
2023-04-07T17:46:28.152Z,92731.31
2023-04-07T17:48:55.024Z,92735.50
2023-04-07T17:51:21.471Z,92732.81
2023-04-07T17:53:48.532Z,92731.44
2023-04-07T17:56:15.226Z,92742.09
2023-04-07T17:58:41.746Z,92735.88
2023-04-07T18:01:11.503Z,92742.09
2023-04-07T18:03:38.278Z,92739.81
2023-04-07T18:06:06.213Z,92740.97
2023-04-07T18:08:32.971Z,92742.66
2023-04-07T18:10:59.414Z,92740.25
2023-04-07T18:13:26.036Z,92747.16
2023-04-07T18:15:52.856Z,92750.78
2023-04-07T18:18:19.660Z,92757.44
2023-04-07T18:20:46.592Z,92762.13
2023-04-07T18:23:13.621Z,92766.00
2023-04-07T18:25:40.150Z,92761.09
2023-04-07T18:28:06.596Z,92767.78
2023-04-07T18:30:33.052Z,92765.16
2023-04-07T18:32:59.496Z,92786.00
2023-04-07T18:35:26.184Z,92788.72
2023-04-07T18:37:52.686Z,92796.78
2023-04-07T18:40:19.149Z,92794.94
2023-04-07T18:42:45.705Z,92797.56
2023-04-07T18:45:12.139Z,92807.53
2023-04-07T18:47:38.988Z,92806.28
2023-04-07T18:50:06.117Z,92811.03
2023-04-07T18:52:32.607Z,92816.25
2023-04-07T18:54:59.021Z,92817.81
2023-04-07T18:57:25.586Z,92823.03
2023-04-07T18:59:52.886Z,92822.25
2023-04-07T19:02:19.484Z,92826.22
2023-04-07T19:04:46.142Z,92826.69
2023-04-07T19:07:12.611Z,92830.88
2023-04-07T19:09:39.821Z,92834.25
2023-04-07T19:12:06.534Z,92842.09
2023-04-07T19:14:32.986Z,92831.78
2023-04-07T19:16:59.494Z,92832.78
2023-04-07T19:19:26.410Z,92838.44
2023-04-07T19:21:52.820Z,92843.19
2023-04-07T19:24:19.345Z,92834.50
2023-04-07T19:26:45.940Z,92839.81
2023-04-07T19:29:12.489Z,92838.00
2023-04-07T19:31:39.548Z,92841.63
2023-04-07T19:34:06.203Z,92839.00
2023-04-07T19:36:32.860Z,92838.91
2023-04-07T19:38:59.288Z,92843.00
2023-04-07T19:41:25.950Z,92837.19
2023-04-07T19:43:53.265Z,92839.94
2023-04-07T19:46:19.810Z,92843.44
2023-04-07T19:48:46.856Z,92843.66
2023-04-07T19:51:13.358Z,92844.03
2023-04-07T19:53:39.928Z,92851.03
2023-04-07T19:56:06.490Z,92849.09
2023-04-07T19:58:34.220Z,92851.47
2023-04-07T20:01:00.982Z,92852.59
2023-04-07T20:03:27.566Z,92850.00
2023-04-07T20:05:54.391Z,92853.63
2023-04-07T20:08:21.340Z,92853.84
2023-04-07T20:10:50.750Z,92861.19
2023-04-07T20:13:17.183Z,92858.59
2023-04-07T20:15:44.145Z,92853.94
2023-04-07T20:18:11.131Z,92859.28
2023-04-07T20:20:37.697Z,92851.47
2023-04-07T20:23:04.166Z,92862.69
2023-04-07T20:25:30.615Z,92858.38
2023-04-07T20:27:57.063Z,92867.88
2023-04-07T20:30:23.502Z,92863.03
2023-04-07T20:32:49.989Z,92859.41
2023-04-07T20:35:16.671Z,92867.53
2023-04-07T20:37:44.378Z,92866.19
2023-04-07T20:40:11.751Z,92874.34
2023-04-07T20:42:38.462Z,92879.22
2023-04-07T20:45:06.375Z,92873.91
2023-04-07T20:47:35.820Z,92873.28
2023-04-07T20:50:02.704Z,92874.31
2023-04-07T20:52:29.215Z,92874.31
2023-04-07T20:54:56.498Z,92879.53
2023-04-07T20:57:23.039Z,92879.19
2023-04-07T20:59:49.643Z,92881.09
2023-04-07T21:02:16.324Z,92877.38
2023-04-07T21:04:42.865Z,92881.34
2023-04-07T21:07:10.563Z,92879.75
2023-04-07T21:09:36.990Z,92885.28
2023-04-07T21:12:04.298Z,92881.34
2023-04-07T21:14:31.935Z,92890.66
2023-04-07T21:16:59.122Z,92885.91
2023-04-07T21:19:26.042Z,92881.00
2023-04-07T21:21:52.512Z,92892.69
2023-04-07T21:24:19.069Z,92882.28
2023-04-07T21:26:45.543Z,92887.03
2023-04-07T21:29:12.141Z,92886.22
2023-04-07T21:31:39.028Z,92879.41
2023-04-07T21:34:05.529Z,92887.13
2023-04-07T21:36:32.710Z,92887.78
2023-04-07T21:38:59.147Z,92885.19
2023-04-07T21:41:25.897Z,92885.63
2023-04-07T21:43:52.387Z,92880.88
2023-04-07T21:46:19.049Z,92883.03
2023-04-07T21:48:45.748Z,92876.34
2023-04-07T21:51:12.475Z,92885.53
2023-04-07T21:53:39.224Z,92884.31
2023-04-07T21:56:08.255Z,92884.88
2023-04-07T21:58:35.278Z,92885.44
2023-04-07T22:01:01.768Z,92882.84
2023-04-07T22:03:29.490Z,92883.50
2023-04-07T22:06:00.143Z,92885.09
2023-04-07T22:08:27.236Z,92884.63
2023-04-07T22:10:53.694Z,92884.63
2023-04-07T22:13:20.383Z,92884.72
2023-04-07T22:15:46.853Z,92886.31
2023-04-07T22:18:13.624Z,92885.28
2023-04-07T22:20:40.447Z,92879.75
2023-04-07T22:23:06.884Z,92887.34
2023-04-07T22:25:33.299Z,92885.09
2023-04-07T22:27:59.817Z,92884.97
2023-04-07T22:30:26.614Z,92883.59
2023-04-07T22:32:53.080Z,92882.94
2023-04-07T22:35:19.616Z,92882.69
2023-04-07T22:37:46.189Z,92879.88
2023-04-07T22:40:12.613Z,92887.13
2023-04-07T22:42:39.986Z,92892.22
2023-04-07T22:45:07.038Z,92882.13
2023-04-07T22:47:33.517Z,92886.66
2023-04-07T22:49:59.987Z,92884.94
2023-04-07T22:52:26.438Z,92883.13
2023-04-07T22:54:52.964Z,92889.13
2023-04-07T22:57:19.396Z,92890.34
2023-04-07T22:59:45.978Z,92895.00
2023-04-07T23:02:12.483Z,92892.59
2023-04-07T23:04:39.126Z,92896.59
2023-04-07T23:07:05.723Z,92886.97
2023-04-07T23:09:32.214Z,92882.34
2023-04-07T23:11:58.682Z,92892.75
2023-04-07T23:14:25.291Z,92890.16
2023-04-07T23:16:51.771Z,92885.41
2023-04-07T23:19:18.314Z,92890.91
2023-04-07T23:21:44.765Z,92889.31
2023-04-07T23:24:11.295Z,92897.13
2023-04-07T23:26:37.744Z,92895.53
2023-04-07T23:29:04.394Z,92888.19
2023-04-07T23:31:31.192Z,92896.75
2023-04-07T23:33:59.585Z,92901.19
2023-04-07T23:36:27.107Z,92889.97
2023-04-07T23:38:55.874Z,92897.78
2023-04-07T23:41:22.720Z,92897.56
2023-04-07T23:43:49.207Z,92907.63
2023-04-07T23:46:15.929Z,92904.81
2023-04-07T23:48:42.527Z,92905.00
2023-04-07T23:51:08.991Z,92904.38
2023-04-07T23:53:35.455Z,92906.31
2023-04-07T23:56:01.904Z,92900.81
2023-04-07T23:58:28.322Z,92908.44
